Time;durP1;ratioP1;P1;durP2;ratioP2;P2;SDS_P1;SDS_P2;PMS_P1;PMS_P2;Temp;Humidity;BMP_temperature;BMP_pressure;BME280_temperature;BME280_humidity;BME280_pressure;Samples;Min_cycle;Max_cycle;Signal;HPM_P1;HPM_P2
2023/06/01 00:00:30;;;;;;;0.50;0.50;;;;;;;19.19;100.00;99515.91;4970916;28;20209;-66
2023/06/01 00:02:57;;;;;;;0.60;0.60;;;;;;;19.13;100.00;99514.50;4971604;28;20587;-67
2023/06/01 00:05:24;;;;;;;0.53;0.53;;;;;;;19.07;100.00;99509.72;4970982;28;20740;-67
2023/06/01 00:07:51;;;;;;;0.60;0.60;;;;;;;19.02;100.00;99511.78;4970898;28;20682;-67
2023/06/01 00:10:19;;;;;;;0.60;0.60;;;;;;;18.97;100.00;99507.78;4971132;28;20299;-67
2023/06/01 00:12:46;;;;;;;0.60;0.60;;;;;;;18.84;100.00;99500.75;4970704;28;20215;-66
2023/06/01 00:15:13;;;;;;;2.97;1.10;;;;;;;18.78;100.00;99514.13;4970936;28;20259;-66
2023/06/01 00:17:39;;;;;;;0.80;0.80;;;;;;;18.78;100.00;99513.28;4970918;28;20222;-65
2023/06/01 00:20:08;;;;;;;0.70;0.70;;;;;;;18.65;100.00;99492.44;4970626;28;20204;-67
2023/06/01 00:22:38;;;;;;;0.70;0.70;;;;;;;18.76;100.00;99510.81;4971073;28;20708;-67
2023/06/01 00:25:05;;;;;;;0.60;0.60;;;;;;;18.78;100.00;99513.28;4970410;28;20231;-67
2023/06/01 00:27:34;;;;;;;0.50;0.50;;;;;;;18.77;100.00;99512.44;4970936;28;20199;-67
2023/06/01 00:30:00;;;;;;;0.93;0.93;;;;;;;18.76;100.00;99510.81;4970684;28;20274;-66
2023/06/01 00:32:27;;;;;;;0.60;0.60;;;;;;;18.68;100.00;99501.78;4969538;28;20201;-67
2023/06/01 00:34:54;;;;;;;0.60;0.60;;;;;;;18.80;100.00;99519.25;4970700;28;20206;-67
2023/06/01 00:37:21;;;;;;;0.77;0.77;;;;;;;18.77;100.00;99517.66;4970705;28;20244;-66
2023/06/01 00:39:47;;;;;;;0.60;0.60;;;;;;;18.74;100.00;99517.84;4971038;28;20683;-66
2023/06/01 00:42:14;;;;;;;0.60;0.60;;;;;;;18.74;100.00;99519.63;4970853;28;20205;-67
2023/06/01 00:44:42;;;;;;;0.67;0.67;;;;;;;18.66;100.00;99501.91;4970680;28;20214;-67
2023/06/01 00:47:09;;;;;;;0.50;0.50;;;;;;;18.74;100.00;99522.22;4970543;28;20651;-66
2023/06/01 00:49:36;;;;;;;0.50;0.50;;;;;;;18.69;100.00;99522.50;4971189;28;20207;-66
2023/06/01 00:52:03;;;;;;;0.77;0.77;;;;;;;18.65;100.00;99521.00;4970452;28;20203;-66
2023/06/01 00:54:30;;;;;;;0.53;0.53;;;;;;;18.59;100.00;99518.78;4970678;28;20209;-67
2023/06/01 00:56:57;;;;;;;0.60;0.60;;;;;;;18.55;100.00;99525.09;4970773;28;20798;-66
2023/06/01 00:59:24;;;;;;;0.60;0.60;;;;;;;18.51;100.00;99521.03;4970427;28;20565;-67
2023/06/01 01:01:52;;;;;;;0.40;0.40;;;;;;;18.47;100.00;99524.69;4968004;28;20346;-66
2023/06/01 01:04:25;;;;;;;1.03;1.03;;;;;;;18.39;100.00;99524.31;4970555;28;20252;-66
2023/06/01 01:07:03;;;;;;;0.63;0.63;;;;;;;18.35;100.00;99520.25;4970483;28;20212;-66
2023/06/01 01:09:36;;;;;;;0.60;0.60;;;;;;;18.35;100.00;99520.25;4969253;28;20201;-66
2023/06/01 01:12:08;;;;;;;0.70;0.70;;;;;;;18.35;100.00;99522.84;4970240;28;20213;-66
2023/06/01 01:14:40;;;;;;;0.70;0.70;;;;;;;18.33;100.00;99522.09;4970947;28;20267;-66
2023/06/01 01:17:15;;;;;;;0.57;0.57;;;;;;;18.21;100.00;99512.44;4970128;28;20699;-66
2023/06/01 01:19:54;;;;;;;0.50;0.50;;;;;;;18.23;100.00;99521.78;4970461;28;20209;-66
2023/06/01 01:22:44;;;;;;;0.50;0.50;;;;;;;18.19;100.00;99528.09;4970659;28;20595;-66
2023/06/01 01:25:27;;;;;;;0.40;0.40;;;;;;;18.15;100.00;99518.00;4973616;28;20231;-66
2023/06/01 01:28:14;;;;;;;0.70;0.70;;;;;;;18.14;100.00;99519.75;4974430;28;20219;-67
2023/06/01 01:30:43;;;;;;;1.03;0.77;;;;;;;18.10;100.00;99509.63;4971849;28;20778;-67
2023/06/01 01:33:12;;;;;;;0.67;0.67;;;;;;;18.14;100.00;99514.56;4966109;28;20212;-67
2023/06/01 01:35:39;;;;;;;0.57;0.57;;;;;;;18.17;100.00;99521.31;4972621;28;20215;-67
2023/06/01 01:38:06;;;;;;;0.50;0.50;;;;;;;18.17;100.00;99514.38;4973707;28;20794;-66
2023/06/01 01:40:33;;;;;;;0.47;0.47;;;;;;;18.18;100.00;99517.81;4973365;28;20216;-66
2023/06/01 01:43:00;;;;;;;0.70;0.70;;;;;;;18.14;100.00;99516.31;4973328;28;20204;-66
2023/06/01 01:45:28;;;;;;;0.77;0.77;;;;;;;18.10;100.00;99514.81;4973839;28;20671;-66
2023/06/01 01:48:04;;;;;;;0.73;0.73;;;;;;;18.08;100.00;99517.53;4974504;28;20639;-67
2023/06/01 01:50:38;;;;;;;0.60;0.60;;;;;;;18.07;100.00;99522.78;4972968;28;20211;-66
2023/06/01 01:53:08;;;;;;;0.70;0.70;;;;;;;18.08;100.00;99516.69;4973030;28;20208;-66
2023/06/01 01:55:36;;;;;;;0.70;0.70;;;;;;;18.08;100.00;99516.69;4973651;28;20204;-66
2023/06/01 01:58:04;;;;;;;0.80;0.80;;;;;;;18.05;100.00;99528.09;4973449;28;20663;-66
2023/06/01 02:00:32;;;;;;;3.87;0.73;;;;;;;18.02;100.00;99530.03;4972670;28;20207;-66
2023/06/01 02:03:01;;;;;;;0.70;0.70;;;;;;;17.91;100.00;99524.59;4973410;28;20246;-66
2023/06/01 02:05:27;;;;;;;0.30;0.30;;;;;;;17.94;100.00;99545.19;4973119;28;20777;-66
2023/06/01 02:07:54;;;;;;;0.57;0.57;;;;;;;17.91;100.00;99541.00;4974195;28;20196;-66
2023/06/01 02:10:21;;;;;;;0.80;0.80;;;;;;;17.93;100.00;99543.53;4973392;28;20215;-66
2023/06/01 02:12:48;;;;;;;0.43;0.43;;;;;;;17.92;100.00;99552.22;4973469;28;20208;-66
2023/06/01 02:15:15;;;;;;;0.43;0.43;;;;;;;17.92;100.00;99541.84;4973077;28;20270;-65
2023/06/01 02:17:42;;;;;;;0.80;0.80;;;;;;;17.87;100.00;99549.06;4972877;28;20202;-66
2023/06/01 02:20:11;;;;;;;0.53;0.53;;;;;;;17.78;100.00;99540.88;4973126;28;20204;-66
2023/06/01 02:22:38;;;;;;;0.50;0.50;;;;;;;17.66;100.00;99536.41;4972784;28;20211;-66
2023/06/01 02:25:06;;;;;;;0.70;0.70;;;;;;;17.59;100.00;99545.44;4972784;28;20243;-66
2023/06/01 02:27:33;;;;;;;0.83;0.83;;;;;;;17.48;100.00;99537.38;4972946;28;20207;-66
2023/06/01 02:29:59;;;;;;;0.50;0.50;;;;;;;17.40;100.00;99542.19;4972944;28;20635;-66
2023/06/01 02:32:27;;;;;;;0.63;0.63;;;;;;;17.37;100.00;99539.75;4972701;28;20203;-66
2023/06/01 02:34:53;;;;;;;0.80;0.80;;;;;;;17.37;100.00;99544.94;4966408;28;20306;-66
2023/06/01 02:37:21;;;;;;;0.73;0.73;;;;;;;17.41;100.00;99537.84;4972704;28;20208;-66
2023/06/01 02:39:48;;;;;;;0.43;0.43;;;;;;;17.43;100.00;99538.56;4972291;28;20211;-66
2023/06/01 02:42:15;;;;;;;0.50;0.50;;;;;;;17.44;100.00;99541.09;4970904;28;20572;-66
2023/06/01 02:44:42;;;;;;;0.57;0.57;;;;;;;17.44;100.00;99540.25;4972510;28;20258;-66
2023/06/01 02:47:09;;;;;;;0.50;0.50;;;;;;;17.44;100.00;99543.69;4972973;28;20215;-66
2023/06/01 02:49:36;;;;;;;0.50;0.50;;;;;;;17.47;100.00;99543.50;4970399;28;20227;-66
2023/06/01 02:52:03;;;;;;;0.50;0.50;;;;;;;17.47;100.00;99542.69;4972329;28;20266;-66
2023/06/01 02:54:31;;;;;;;0.60;0.60;;;;;;;17.46;100.00;99544.44;4972851;28;20196;-66
2023/06/01 02:56:58;;;;;;;0.50;0.50;;;;;;;17.43;100.00;99547.19;4972097;28;20246;-66
2023/06/01 02:59:25;;;;;;;0.60;0.60;;;;;;;17.44;100.00;99548.88;4972322;28;20274;-66
2023/06/01 03:01:51;;;;;;;0.40;0.40;;;;;;;17.42;100.00;99549.84;4972430;28;20285;-66
2023/06/01 03:04:18;;;;;;;0.53;0.53;;;;;;;17.43;100.00;99549.78;4972530;28;20599;-66
2023/06/01 03:06:45;;;;;;;0.70;0.70;;;;;;;17.44;100.00;99546.28;4969531;28;20290;-65
2023/06/01 03:09:12;;;;;;;0.50;0.50;;;;;;;17.43;100.00;99547.19;4971749;28;20203;-66
2023/06/01 03:11:41;;;;;;;0.77;0.77;;;;;;;17.42;100.00;99547.25;4971873;28;20226;-66
2023/06/01 03:14:08;;;;;;;1.10;1.10;;;;;;;17.39;100.00;99543.09;4970761;28;20230;-66
2023/06/01 03:16:35;;;;;;;0.60;0.60;;;;;;;17.39;100.00;99548.28;4972318;28;20208;-66
2023/06/01 03:19:02;;;;;;;0.77;0.77;;;;;;;17.39;100.00;99553.47;4971386;28;20274;-66
2023/06/01 03:21:31;;;;;;;0.50;0.50;;;;;;;17.38;100.00;99551.81;4971365;28;20214;-66
2023/06/01 03:23:58;;;;;;;0.60;0.60;;;;;;;17.38;100.00;99549.22;4972221;28;20211;-66
2023/06/01 03:26:25;;;;;;;0.60;0.60;;;;;;;17.36;100.00;99548.44;4971669;28;20234;-66
2023/06/01 03:28:53;;;;;;;0.50;0.50;;;;;;;17.26;100.00;99537.75;4972109;28;20199;-66
2023/06/01 03:31:20;;;;;;;0.60;0.60;;;;;;;17.36;100.00;99553.63;4971505;28;20227;-66
2023/06/01 03:33:47;;;;;;;0.57;0.57;;;;;;;17.39;100.00;99555.22;4972039;28;20195;-66
2023/06/01 03:36:14;;;;;;;0.40;0.40;;;;;;;17.39;100.00;99561.22;4971130;28;20207;-67
2023/06/01 03:38:42;;;;;;;0.87;0.87;;;;;;;17.44;100.00;99566.19;4971712;28;20212;-66
2023/06/01 03:41:09;;;;;;;0.80;0.80;;;;;;;17.44;100.00;99556.66;4971806;28;20667;-66
2023/06/01 03:43:36;;;;;;;0.80;0.80;;;;;;;17.55;100.00;99562.09;4971922;28;20199;-66
2023/06/01 03:46:04;;;;;;;0.47;0.47;;;;;;;17.67;100.00;99569.16;4971141;28;20217;-66
2023/06/01 03:48:30;;;;;;;0.70;0.70;;;;;;;17.78;100.00;99576.34;4973614;28;20199;-66
2023/06/01 03:50:57;;;;;;;0.50;0.50;;;;;;;17.90;100.00;99570.44;4971740;28;20199;-66
2023/06/01 03:53:26;;;;;;;0.50;0.50;;;;;;;17.96;100.00;99557.16;4966492;28;20678;-67
2023/06/01 03:55:54;;;;;;;0.83;0.83;;;;;;;18.20;100.00;99570.44;4966329;28;20652;-66
2023/06/01 03:58:21;;;;;;;0.50;0.50;;;;;;;18.33;100.00;99574.84;4969835;28;20219;-65
2023/06/01 04:00:48;;;;;;;1.20;1.20;;;;;;;18.50;100.00;99575.63;4973670;28;20216;-67
2023/06/01 04:03:21;;;;;;;0.53;0.53;;;;;;;18.64;100.00;99579.03;4971257;28;20210;-67
2023/06/01 04:05:49;;;;;;;0.40;0.40;;;;;;;18.78;100.00;99576.47;4973061;28;20203;-67
2023/06/01 04:08:17;;;;;;;0.60;0.60;;;;;;;18.92;100.00;99567.84;4971046;28;20205;-67
2023/06/01 04:10:43;;;;;;;0.60;0.60;;;;;;;19.07;100.00;99568.63;4970788;28;20243;-67
2023/06/01 04:13:10;;;;;;;0.53;0.53;;;;;;;19.12;100.00;99574.41;4970930;28;20207;-67
2023/06/01 04:15:37;;;;;;;0.60;0.60;;;;;;;19.23;100.00;99575.38;4971353;28;20198;-66
2023/06/01 04:18:04;;;;;;;0.70;0.70;;;;;;;19.39;100.00;99583.03;4971068;28;20208;-67
2023/06/01 04:20:32;;;;;;;0.53;0.53;;;;;;;19.50;100.00;99575.44;4972434;28;20284;-66
2023/06/01 04:22:59;;;;;;;0.70;0.70;;;;;;;19.66;100.00;99576.13;4970813;28;20218;-67
2023/06/01 04:25:25;;;;;;;0.73;0.73;;;;;;;19.81;100.00;99579.50;4972994;28;20228;-67
2023/06/01 04:27:54;;;;;;;0.43;0.43;;;;;;;19.95;100.00;99583.81;4965178;28;20210;-67
2023/06/01 04:30:22;;;;;;;0.50;0.50;;;;;;;20.10;100.00;99588.81;4971019;28;20208;-67
2023/06/01 04:32:49;;;;;;;0.40;0.40;;;;;;;20.19;100.00;99563.97;4970765;28;20217;-67
2023/06/01 04:35:16;;;;;;;0.87;0.87;;;;;;;20.39;100.00;99581.72;4970062;28;20206;-67
2023/06/01 04:37:44;;;;;;;0.40;0.40;;;;;;;20.65;100.00;99588.59;4969981;28;20631;-66
2023/06/01 04:40:13;;;;;;;0.50;0.50;;;;;;;20.82;100.00;99585.66;4967792;28;20233;-67
2023/06/01 04:42:42;;;;;;;0.97;0.97;;;;;;;21.03;100.00;99598.16;4967198;28;20214;-65
2023/06/01 04:45:09;;;;;;;0.67;0.67;;;;;;;21.22;100.00;99598.56;4969987;28;20246;-67
2023/06/01 04:47:39;;;;;;;0.50;0.50;;;;;;;21.45;100.00;99600.38;4971049;28;20258;-67
2023/06/01 04:50:08;;;;;;;0.50;0.50;;;;;;;21.62;99.06;99597.38;4971329;28;20210;-67
2023/06/01 04:52:35;;;;;;;0.60;0.60;;;;;;;21.78;96.67;99592.69;4971125;28;20234;-67
2023/06/01 04:55:04;;;;;;;0.40;0.40;;;;;;;21.81;95.88;99594.28;4970696;28;20207;-67
2023/06/01 04:57:30;;;;;;;0.40;0.40;;;;;;;22.03;95.40;99606.59;4970155;28;20584;-67
2023/06/01 04:59:58;;;;;;;0.40;0.40;;;;;;;22.21;94.73;99605.22;4974212;28;20222;-66
2023/06/01 05:02:26;;;;;;;0.40;0.40;;;;;;;22.40;94.22;99600.28;4974856;28;20203;-66
2023/06/01 05:04:53;;;;;;;0.50;0.50;;;;;;;22.62;93.58;99613.38;4973129;28;20235;-65
2023/06/01 05:07:21;;;;;;;0.53;0.53;;;;;;;22.71;92.64;99612.75;4972817;28;20211;-65
2023/06/01 05:09:47;;;;;;;0.60;0.60;;;;;;;22.85;91.02;99612.50;4973522;28;20203;-64
2023/06/01 05:12:16;;;;;;;0.50;0.50;;;;;;;23.06;89.88;99610.00;4974836;28;20206;-64
2023/06/01 05:14:42;;;;;;;0.73;0.73;;;;;;;23.25;88.57;99601.53;4975120;28;20667;-63
2023/06/01 05:17:09;;;;;;;0.40;0.40;;;;;;;23.36;87.27;99602.34;4974044;28;20212;-65
2023/06/01 05:19:36;;;;;;;0.43;0.43;;;;;;;23.50;85.32;99603.88;4973138;28;20259;-64
2023/06/01 05:22:03;;;;;;;0.63;0.63;;;;;;;23.57;83.75;99599.84;4972767;28;20259;-64
2023/06/01 05:24:29;;;;;;;0.40;0.40;;;;;;;23.77;83.29;99606.91;4972959;28;20211;-65
2023/06/01 05:26:56;;;;;;;0.63;0.63;;;;;;;23.93;81.95;99609.94;4972268;28;20218;-65
2023/06/01 05:29:24;;;;;;;0.40;0.40;;;;;;;23.98;80.11;99607.78;4972501;28;22085;-65
2023/06/01 05:31:51;;;;;;;0.30;0.30;;;;;;;24.11;81.74;99609.38;4972244;28;20210;-65
2023/06/01 05:34:18;;;;;;;0.40;0.40;;;;;;;24.26;79.81;99614.22;4974188;28;20302;-64
2023/06/01 05:36:45;;;;;;;0.20;0.20;;;;;;;24.37;79.54;99615.94;4973968;28;20203;-63
2023/06/01 05:39:11;;;;;;;0.53;0.53;;;;;;;24.51;79.42;99607.75;4972146;28;20227;-64
2023/06/01 05:41:38;;;;;;;0.53;0.53;;;;;;;24.73;77.29;99617.25;4973717;28;20302;-64
2023/06/01 05:44:05;;;;;;;0.30;0.30;;;;;;;24.86;76.50;99613.50;4973124;28;20207;-66
2023/06/01 05:46:33;;;;;;;0.20;0.20;;;;;;;25.02;76.60;99616.47;4973312;28;20204;-66
2023/06/01 05:49:00;;;;;;;0.30;0.30;;;;;;;25.16;75.69;99606.56;4974697;28;20207;-68
2023/06/01 05:51:27;;;;;;;0.30;0.30;;;;;;;25.28;75.39;99608.09;4974327;28;20266;-64
2023/06/01 05:53:54;;;;;;;0.30;0.30;;;;;;;25.42;75.25;99615.63;4972967;28;20695;-66
2023/06/01 05:56:20;;;;;;;0.30;0.30;;;;;;;25.58;74.63;99615.94;4976154;28;20575;-66
2023/06/01 05:58:50;;;;;;;0.60;0.60;;;;;;;25.72;74.49;99612.91;4973636;28;20199;-66
2023/06/01 06:01:17;;;;;;;0.97;0.97;;;;;;;25.88;73.69;99618.44;4973126;28;20251;-67
2023/06/01 06:03:46;;;;;;;0.43;0.43;;;;;;;25.98;71.33;99611.41;4966062;28;20204;-67
2023/06/01 06:06:12;;;;;;;0.30;0.30;;;;;;;26.16;70.43;99619.47;4966410;28;20286;-66
2023/06/01 06:08:39;;;;;;;0.30;0.30;;;;;;;26.24;69.80;99621.38;4972478;28;20231;-66
2023/06/01 06:11:06;;;;;;;0.50;0.50;;;;;;;26.37;70.34;99620.13;4972394;28;20199;-67
2023/06/01 06:13:33;;;;;;;0.30;0.30;;;;;;;26.60;71.39;99616.19;4973821;28;20206;-66
2023/06/01 06:16:00;;;;;;;0.40;0.40;;;;;;;26.74;69.08;99620.19;4972536;28;20270;-67
2023/06/01 06:18:26;;;;;;;0.60;0.60;;;;;;;26.62;69.44;99616.06;4969390;28;20211;-66
2023/06/01 06:20:54;;;;;;;0.30;0.30;;;;;;;26.60;66.63;99618.81;4972453;28;20223;-66
2023/06/01 06:23:22;;;;;;;0.47;0.47;;;;;;;26.73;69.73;99615.03;4972207;28;20215;-66
2023/06/01 06:25:49;;;;;;;0.60;0.60;;;;;;;26.85;67.66;99620.00;4972129;28;20326;-66
2023/06/01 06:28:16;;;;;;;0.60;0.60;;;;;;;26.92;66.94;99618.47;4972400;28;20231;-66
2023/06/01 06:30:43;;;;;;;0.63;0.57;;;;;;;26.99;66.83;99622.19;4971635;28;20713;-66
2023/06/01 06:33:10;;;;;;;0.40;0.40;;;;;;;27.07;69.36;99617.03;4973121;28;20203;-66
2023/06/01 06:35:38;;;;;;;0.50;0.50;;;;;;;27.12;64.36;99612.16;4971905;28;20207;-66
2023/06/01 06:38:06;;;;;;;0.70;0.60;;;;;;;27.27;65.69;99619.56;4970329;28;20234;-66
2023/06/01 06:40:33;;;;;;;0.50;0.50;;;;;;;27.50;62.92;99615.56;4972307;28;20215;-70
2023/06/01 06:43:01;;;;;;;1.33;0.30;;;;;;;27.63;64.55;99616.03;4971937;28;20419;-67
2023/06/01 06:45:28;;;;;;;0.40;0.40;;;;;;;27.72;63.23;99620.44;4971200;28;20543;-67
2023/06/01 06:47:54;;;;;;;0.40;0.40;;;;;;;27.83;62.82;99612.28;4966642;28;20266;-66
2023/06/01 06:50:21;;;;;;;4.33;0.57;;;;;;;27.95;64.08;99611.06;4973131;28;20215;-66
2023/06/01 06:52:48;;;;;;;0.27;0.27;;;;;;;28.15;63.63;99617.03;4974629;28;20212;-66
2023/06/01 06:55:16;;;;;;;0.43;0.43;;;;;;;28.23;61.93;99614.47;4973147;28;20262;-66
2023/06/01 06:57:43;;;;;;;0.30;0.30;;;;;;;28.26;60.90;99608.06;4972292;28;20204;-67
2023/06/01 07:00:14;;;;;;;0.70;0.70;;;;;;;28.26;61.21;99598.34;4972212;28;20298;-67
2023/06/01 07:02:41;;;;;;;0.50;0.50;;;;;;;28.07;59.42;99615.19;4971862;28;20210;-66
2023/06/01 07:05:10;;;;;;;0.57;0.57;;;;;;;27.90;61.24;99608.06;4972694;28;20294;-67
2023/06/01 07:07:37;;;;;;;0.57;0.57;;;;;;;27.91;68.33;99587.81;4972078;28;20207;-67
2023/06/01 07:10:05;;;;;;;0.20;0.20;;;;;;;28.02;61.66;99598.13;4971205;28;20203;-67
2023/06/01 07:12:33;;;;;;;0.33;0.33;;;;;;;28.11;62.15;99599.88;4972038;28;20235;-66
2023/06/01 07:15:00;;;;;;;0.52;0.52;;;;;;;28.21;65.08;99594.53;4971449;28;20207;-66
2023/06/01 07:17:27;;;;;;;0.30;0.30;;;;;;;28.27;59.50;99591.28;4971961;28;20226;-64
2023/06/01 07:19:54;;;;;;;0.60;0.60;;;;;;;28.03;59.25;99586.59;4972463;28;20223;-66
2023/06/01 07:22:21;;;;;;;0.38;0.38;;;;;;;28.13;59.61;99598.75;4970262;28;20743;-66
2023/06/01 07:24:48;;;;;;;0.55;0.55;;;;;;;27.89;61.11;99590.59;4972530;28;20318;-66
2023/06/01 07:27:16;;;;;;;0.53;0.50;;;;;;;27.89;60.23;99587.13;4972792;28;20286;-66
2023/06/01 07:29:45;;;;;;;0.68;0.63;;;;;;;28.09;60.09;99594.75;4972681;28;20270;-66
2023/06/01 07:32:12;;;;;;;0.40;0.40;;;;;;;28.24;60.34;99595.03;4961854;28;20306;-65
2023/06/01 07:34:38;;;;;;;0.30;0.30;;;;;;;28.13;58.52;99587.38;4973226;28;20269;-65
2023/06/01 07:37:07;;;;;;;0.45;0.45;;;;;;;28.08;58.11;99589.63;4971302;28;20231;-65
2023/06/01 07:39:33;;;;;;;0.50;0.40;;;;;;;27.89;57.76;99590.59;4968477;28;20223;-66
2023/06/01 07:42:01;;;;;;;0.50;0.50;;;;;;;28.10;58.47;99587.69;4971216;28;20654;-66
2023/06/01 07:44:29;;;;;;;0.30;0.30;;;;;;;27.93;55.53;99580.59;4970539;28;20496;-66
2023/06/01 07:46:57;;;;;;;0.40;0.40;;;;;;;28.01;56.05;99584.09;4968906;28;20207;-66
2023/06/01 07:49:24;;;;;;;0.40;0.40;;;;;;;28.32;57.96;99578.44;4972271;28;20262;-66
2023/06/01 07:51:52;;;;;;;0.30;0.30;;;;;;;28.55;57.82;99571.66;4970359;28;20702;-66
2023/06/01 07:54:19;;;;;;;0.43;0.43;;;;;;;28.61;58.43;99565.75;4971886;28;20207;-66
2023/06/01 07:56:47;;;;;;;0.47;0.47;;;;;;;28.90;57.43;99576.81;4968448;28;20214;-67
2023/06/01 07:59:14;;;;;;;0.50;0.50;;;;;;;29.11;56.97;99574.56;4967174;28;20203;-66
2023/06/01 08:01:41;;;;;;;0.65;0.65;;;;;;;29.42;56.16;99574.03;4971210;28;20309;-66
2023/06/01 08:04:10;;;;;;;0.47;0.47;;;;;;;29.53;56.15;99563.97;4971828;28;20639;-66
2023/06/01 08:06:38;;;;;;;0.50;0.50;;;;;;;29.61;56.84;99566.66;4973162;28;20238;-67
2023/06/01 08:09:05;;;;;;;0.45;0.45;;;;;;;29.54;54.66;99560.38;4972374;28;20207;-64
2023/06/01 08:11:32;;;;;;;0.57;0.57;;;;;;;29.69;54.84;99563.19;4965814;28;20624;-63
2023/06/01 08:14:01;;;;;;;0.47;0.40;;;;;;;29.84;56.45;99561.59;4970640;28;20734;-63
2023/06/01 08:16:28;;;;;;;0.50;0.50;;;;;;;29.45;55.65;99560.50;4972063;28;20214;-65
2023/06/01 08:18:56;;;;;;;0.40;0.40;;;;;;;29.22;55.38;99559.44;4972460;28;20207;-64
2023/06/01 08:21:26;;;;;;;0.40;0.40;;;;;;;29.16;56.41;99563.56;4971917;28;20731;-64
2023/06/01 08:23:54;;;;;;;0.30;0.30;;;;;;;28.97;55.72;99566.47;4975204;28;20679;-65
2023/06/01 08:26:21;;;;;;;0.40;0.40;;;;;;;28.89;55.65;99540.00;4970691;28;20332;-64
2023/06/01 08:28:51;;;;;;;4.63;0.73;;;;;;;28.79;57.15;99558.63;4972350;28;20236;-66
2023/06/01 08:31:18;;;;;;;0.47;0.47;;;;;;;28.94;55.85;99561.50;4971917;28;20204;-66
2023/06/01 08:33:45;;;;;;;0.40;0.40;;;;;;;29.18;57.76;99561.56;4971826;28;20203;-66
2023/06/01 08:36:12;;;;;;;0.60;0.60;;;;;;;29.49;56.06;99556.56;4971903;28;20263;-66
2023/06/01 08:38:41;;;;;;;0.47;0.47;;;;;;;29.64;56.59;99555.75;4971840;28;20299;-66
2023/06/01 08:41:15;;;;;;;0.28;0.28;;;;;;;29.54;53.87;99559.53;4972513;28;20281;-64
2023/06/01 08:43:42;;;;;;;0.32;0.32;;;;;;;29.21;55.50;99557.81;4968347;28;20270;-65
2023/06/01 08:46:08;;;;;;;0.32;0.32;;;;;;;29.14;54.97;99547.84;4972269;28;20203;-65
2023/06/01 08:48:35;;;;;;;0.52;0.52;;;;;;;29.08;57.35;99545.84;4971291;28;20203;-64
2023/06/01 08:51:02;;;;;;;0.30;0.30;;;;;;;29.15;57.81;99549.53;4970354;28;20203;-63
2023/06/01 08:53:30;;;;;;;0.43;0.43;;;;;;;28.87;57.17;99545.47;4974946;28;20202;-64
2023/06/01 08:55:58;;;;;;;0.38;0.38;;;;;;;28.95;58.18;99536.75;4971519;28;20270;-63
2023/06/01 08:58:26;;;;;;;0.38;0.38;;;;;;;29.15;54.88;99538.97;4970992;28;20208;-64
2023/06/01 09:00:55;;;;;;;0.30;0.30;;;;;;;28.90;58.18;99524.03;4971079;28;20234;-63
2023/06/01 09:03:22;;;;;;;0.50;0.50;;;;;;;29.12;54.22;99536.63;4970511;28;20231;-64
2023/06/01 09:05:49;;;;;;;0.35;0.35;;;;;;;28.95;54.84;99532.28;4970177;28;20207;-63
2023/06/01 09:08:16;;;;;;;0.40;0.40;;;;;;;28.78;54.34;99530.59;4970312;28;20200;-64
2023/06/01 09:10:43;;;;;;;0.30;0.30;;;;;;;28.88;57.67;99536.56;4970493;28;20279;-64
2023/06/01 09:13:11;;;;;;;0.83;0.83;;;;;;;28.72;58.08;99531.22;4963718;28;20195;-64
2023/06/01 09:15:52;;;;;;;0.50;0.50;;;;;;;29.05;56.92;99522.41;4971582;28;20211;-62
2023/06/01 09:18:19;;;;;;;0.75;0.30;;;;;;;28.99;57.82;99531.00;4972089;28;20678;-64
2023/06/01 09:20:45;;;;;;;0.30;0.30;;;;;;;29.22;54.49;99533.84;4969098;28;20226;-62
2023/06/01 09:23:12;;;;;;;0.45;0.45;;;;;;;29.21;52.42;99531.41;4971629;28;20203;-64
2023/06/01 09:25:39;;;;;;;0.40;0.40;;;;;;;28.94;50.75;99530.66;4971413;28;20234;-63
2023/06/01 09:28:06;;;;;;;0.40;0.40;;;;;;;28.83;52.35;99525.66;4971682;28;20218;-64
2023/06/01 09:30:42;;;;;;;0.40;0.40;;;;;;;29.05;51.01;99522.41;4970276;28;20304;-63
2023/06/01 09:33:14;;;;;;;0.40;0.40;;;;;;;29.12;46.63;99518.16;4972145;28;20564;-64
2023/06/01 09:35:43;;;;;;;0.47;0.47;;;;;;;29.02;44.20;99516.63;4970867;28;20286;-63
2023/06/01 09:38:10;;;;;;;0.60;0.60;;;;;;;28.95;47.97;99513.00;4971501;28;20262;-63
2023/06/01 09:40:39;;;;;;;0.65;0.65;;;;;;;28.85;48.95;99509.66;4971329;28;20915;-63
2023/06/01 09:43:20;;;;;;;0.35;0.35;;;;;;;28.87;48.43;99513.81;4968326;28;20299;-62
2023/06/01 09:46:04;;;;;;;0.40;0.40;;;;;;;28.74;46.85;99507.31;4972627;28;20303;-62
2023/06/01 09:48:31;;;;;;;0.30;0.30;;;;;;;28.67;47.54;99509.75;4977142;28;20277;-62
2023/06/01 09:50:58;;;;;;;0.30;0.30;;;;;;;28.58;48.98;99502.75;4974802;28;20207;-62
2023/06/01 09:53:25;;;;;;;0.50;0.30;;;;;;;28.60;48.44;99501.63;4973412;28;20203;-64
2023/06/01 09:55:59;;;;;;;0.52;0.52;;;;;;;28.77;47.90;99499.06;4974431;28;20670;-62
2023/06/01 09:58:26;;;;;;;0.52;0.52;;;;;;;28.53;49.28;99489.22;4974830;28;20250;-63
2023/06/01 10:00:55;;;;;;;0.40;0.40;;;;;;;28.72;48.64;99494.28;4974832;28;20721;-63
2023/06/01 10:03:23;;;;;;;0.50;0.50;;;;;;;28.81;46.22;99490.69;4972883;28;20208;-63
2023/06/01 10:05:50;;;;;;;0.30;0.30;;;;;;;28.98;45.68;99494.22;4974362;28;20235;-63
2023/06/01 10:08:18;;;;;;;0.30;0.30;;;;;;;28.83;46.01;99496.63;4973840;28;20219;-64
2023/06/01 10:10:47;;;;;;;0.20;0.20;;;;;;;28.79;46.75;99487.38;4972133;28;20222;-64
2023/06/01 10:13:15;;;;;;;0.20;0.20;;;;;;;28.71;46.92;99482.06;4973291;28;20199;-64
2023/06/01 10:15:42;;;;;;;0.30;0.30;;;;;;;28.82;45.72;99489.69;4974231;28;20203;-64
2023/06/01 10:18:10;;;;;;;0.40;0.40;;;;;;;28.71;46.73;99476.78;4973562;28;20694;-64
2023/06/01 10:20:39;;;;;;;0.53;0.53;;;;;;;28.92;49.06;99474.53;4976312;28;20293;-64
2023/06/01 10:23:06;;;;;;;0.25;0.25;;;;;;;29.14;46.13;99479.22;4972366;28;20658;-63
2023/06/01 10:25:38;;;;;;;0.20;0.20;;;;;;;28.90;45.06;99481.81;4971301;28;20227;-63
2023/06/01 10:28:08;;;;;;;0.30;0.30;;;;;;;28.85;45.55;99476.19;4968308;28;20691;-64
2023/06/01 10:30:35;;;;;;;0.40;0.40;;;;;;;28.69;44.89;99468.22;4971400;28;20770;-63
2023/06/01 10:33:03;;;;;;;0.70;0.47;;;;;;;28.65;48.03;99461.56;4970969;28;20298;-64
2023/06/01 10:36:04;;;;;;;0.30;0.30;;;;;;;28.73;44.36;99460.78;4970633;28;20273;-63
2023/06/01 10:38:31;;;;;;;0.30;0.30;;;;;;;28.64;44.58;99457.28;4971315;28;20591;-62
2023/06/01 10:41:30;;;;;;;0.43;0.43;;;;;;;28.78;43.92;99453.25;4969478;28;20259;-64
2023/06/01 10:43:58;;;;;;;0.20;0.20;;;;;;;28.69;45.91;99444.47;4972389;28;20207;-64
2023/06/01 10:46:40;;;;;;;0.40;0.40;;;;;;;28.79;45.66;99444.34;4969613;28;20203;-62
2023/06/01 10:49:07;;;;;;;0.40;0.40;;;;;;;28.78;44.66;99440.88;4970376;28;20211;-64
2023/06/01 10:51:35;;;;;;;0.40;0.40;;;;;;;28.72;45.82;99436.25;4973094;28;20208;-64
2023/06/01 10:54:29;;;;;;;0.32;0.32;;;;;;;28.61;43.63;99439.13;4974189;28;20211;-63
2023/06/01 10:57:26;;;;;;;0.50;0.50;;;;;;;28.59;44.85;99438.47;4972759;28;20204;-63
2023/06/01 11:00:16;;;;;;;0.80;0.38;;;;;;;28.72;44.84;99415.13;4972816;28;20203;-63
2023/06/01 11:02:48;;;;;;;0.30;0.30;;;;;;;28.84;44.59;99421.75;4972139;28;20211;-63
2023/06/01 11:05:37;;;;;;;0.30;0.30;;;;;;;28.74;44.35;99421.06;4972343;28;20207;-63
2023/06/01 11:08:06;;;;;;;0.40;0.40;;;;;;;28.70;45.07;99419.72;4973137;28;20596;-63
2023/06/01 11:10:59;;;;;;;0.27;0.27;;;;;;;28.81;43.52;99427.34;4973616;28;20210;-63
2023/06/01 11:13:29;;;;;;;0.40;0.40;;;;;;;28.57;44.14;99416.69;4968781;28;20215;-62
2023/06/01 11:16:31;;;;;;;1.65;0.30;;;;;;;28.57;46.67;99406.13;4973329;28;20263;-63
2023/06/01 11:19:00;;;;;;;0.43;0.43;;;;;;;28.67;42.69;99406.84;4972335;28;20655;-64
2023/06/01 11:21:28;;;;;;;0.40;0.33;;;;;;;28.78;45.16;99406.56;4970802;28;20298;-63
2023/06/01 11:23:58;;;;;;;0.50;0.30;;;;;;;28.71;43.33;99396.81;4972949;28;20726;-63
2023/06/01 11:26:29;;;;;;;0.30;0.30;;;;;;;28.70;43.65;99385.44;4972722;28;20227;-63
2023/06/01 11:29:05;;;;;;;0.35;0.35;;;;;;;28.91;43.57;99398.19;4974506;28;20678;-63
2023/06/01 11:31:37;;;;;;;0.30;0.30;;;;;;;28.99;43.19;99393.72;4965273;28;20216;-63
2023/06/01 11:34:04;;;;;;;0.38;0.38;;;;;;;28.85;43.71;99377.72;4971602;28;20275;-63
2023/06/01 11:36:31;;;;;;;0.25;0.25;;;;;;;28.83;42.22;99384.94;4973362;28;20208;-63